sensor_id;sensor_type;location;lat;lon;timestamp;pressure;altitude;pressure_sealevel;temperature;humidity
3142;BME280;1581;51.568;6.998;2023-06-26T00:02:29;100573.16;;;22.97;100.00
3142;BME280;1581;51.568;6.998;2023-06-26T00:04:59;100577.78;;;23.02;100.00
3142;BME280;1581;51.568;6.998;2023-06-26T00:07:28;100572.63;;;23.00;100.00
3142;BME280;1581;51.568;6.998;2023-06-26T00:09:57;100573.44;;;23.01;100.00
3142;BME280;1581;51.568;6.998;2023-06-26T00:12:25;100566.09;;;22.91;100.00
3142;BME280;1581;51.568;6.998;2023-06-26T00:14:52;100563.91;;;22.83;100.00
3142;BME280;1581;51.568;6.998;2023-06-26T00:17:22;100567.72;;;22.92;100.00
3142;BME280;1581;51.568;6.998;2023-06-26T00:19:50;100567.72;;;22.92;100.00
3142;BME280;1581;51.568;6.998;2023-06-26T00:22:18;100562.03;;;22.94;100.00
3142;BME280;1581;51.568;6.998;2023-06-26T00:24:46;100564.47;;;22.90;100.00
3142;BME280;1581;51.568;6.998;2023-06-26T00:27:14;100570.47;;;22.77;100.00
3142;BME280;1581;51.568;6.998;2023-06-26T00:29:42;100563.38;;;22.76;100.00
3142;BME280;1581;51.568;6.998;2023-06-26T00:32:10;100563.66;;;22.65;100.00
3142;BME280;1581;51.568;6.998;2023-06-26T00:34:39;100571.28;;;22.63;100.00
3142;BME280;1581;51.568;6.998;2023-06-26T00:37:07;100566.91;;;22.57;100.00
3142;BME280;1581;51.568;6.998;2023-06-26T00:39:34;100560.66;;;22.57;100.00
3142;BME280;1581;51.568;6.998;2023-06-26T00:42:03;100567.97;;;22.56;100.00
3142;BME280;1581;51.568;6.998;2023-06-26T00:44:30;100572.63;;;22.51;100.00
3142;BME280;1581;51.568;6.998;2023-06-26T00:46:59;100559.03;;;22.46;100.00
3142;BME280;1581;51.568;6.998;2023-06-26T00:49:27;100562.81;;;22.45;100.00
3142;BME280;1581;51.568;6.998;2023-06-26T00:51:57;100556.28;;;22.36;100.00
3142;BME280;1581;51.568;6.998;2023-06-26T00:54:24;100555.19;;;22.42;100.00
3142;BME280;1581;51.568;6.998;2023-06-26T00:56:53;100551.41;;;22.38;100.00
3142;BME280;1581;51.568;6.998;2023-06-26T00:59:21;100549.47;;;22.28;100.00
3142;BME280;1581;51.568;6.998;2023-06-26T01:01:49;100550.28;;;22.29;100.00
3142;BME280;1581;51.568;6.998;2023-06-26T01:04:17;100542.69;;;22.26;100.00
3142;BME280;1581;51.568;6.998;2023-06-26T01:06:47;100547.81;;;22.27;100.00
3142;BME280;1581;51.568;6.998;2023-06-26T01:09:22;100542.13;;;22.24;100.00
3142;BME280;1581;51.568;6.998;2023-06-26T01:11:52;100546.47;;;22.20;100.00
3142;BME280;1581;51.568;6.998;2023-06-26T01:14:22;100539.38;;;22.09;100.00
3142;BME280;1581;51.568;6.998;2023-06-26T01:16:52;100534.50;;;22.16;100.00
3142;BME280;1581;51.568;6.998;2023-06-26T01:19:27;100525.84;;;22.19;100.00
3142;BME280;1581;51.568;6.998;2023-06-26T01:22:13;100531.25;;;22.09;100.00
3142;BME280;1581;51.568;6.998;2023-06-26T01:25:00;100526.63;;;22.09;100.00
3142;BME280;1581;51.568;6.998;2023-06-26T01:27:36;100527.72;;;22.18;100.00
3142;BME280;1581;51.568;6.998;2023-06-26T01:30:07;100521.44;;;21.98;100.00
3142;BME280;1581;51.568;6.998;2023-06-26T01:32:36;100518.75;;;21.98;100.00
3142;BME280;1581;51.568;6.998;2023-06-26T01:35:08;100515.78;;;22.04;100.00
3142;BME280;1581;51.568;6.998;2023-06-26T01:37:40;100518.47;;;22.04;100.00
3142;BME280;1581;51.568;6.998;2023-06-26T01:40:10;100512.47;;;21.97;100.00
3142;BME280;1581;51.568;6.998;2023-06-26T01:42:42;100519.25;;;21.95;100.00
3142;BME280;1581;51.568;6.998;2023-06-26T01:45:19;100522.25;;;21.93;100.00
3142;BME280;1581;51.568;6.998;2023-06-26T01:47:58;100510.56;;;21.93;100.00
3142;BME280;1581;51.568;6.998;2023-06-26T01:50:32;100508.41;;;21.90;100.00
3142;BME280;1581;51.568;6.998;2023-06-26T01:53:06;100509.50;;;21.89;100.00
3142;BME280;1581;51.568;6.998;2023-06-26T01:55:44;100515.44;;;21.86;100.00
3142;BME280;1581;51.568;6.998;2023-06-26T01:58:16;100517.63;;;21.89;100.00
3142;BME280;1581;51.568;6.998;2023-06-26T02:00:45;100520.91;;;21.91;100.00
3142;BME280;1581;51.568;6.998;2023-06-26T02:03:14;100508.91;;;21.82;100.00
3142;BME280;1581;51.568;6.998;2023-06-26T02:05:46;100516.72;;;21.68;100.00
3142;BME280;1581;51.568;6.998;2023-06-26T02:08:17;100519.16;;;21.65;100.00
3142;BME280;1581;51.568;6.998;2023-06-26T02:10:49;100521.91;;;21.75;100.00
3142;BME280;1581;51.568;6.998;2023-06-26T02:13:19;100511.91;;;21.75;100.00
3142;BME280;1581;51.568;6.998;2023-06-26T02:15:51;100513.19;;;21.63;100.00
3142;BME280;1581;51.568;6.998;2023-06-26T02:18:25;100519.44;;;21.64;100.00
3142;BME280;1581;51.568;6.998;2023-06-26T02:20:55;100517.81;;;21.63;100.00
3142;BME280;1581;51.568;6.998;2023-06-26T02:23:30;100515.38;;;21.66;100.00
3142;BME280;1581;51.568;6.998;2023-06-26T02:26:02;100520.28;;;21.69;100.00
3142;BME280;1581;51.568;6.998;2023-06-26T02:28:31;100521.31;;;21.63;100.00
3142;BME280;1581;51.568;6.998;2023-06-26T02:31:00;100524.91;;;21.73;100.00
3142;BME280;1581;51.568;6.998;2023-06-26T02:33:31;100532.22;;;21.73;100.00
3142;BME280;1581;51.568;6.998;2023-06-26T02:36:03;100525.47;;;21.80;100.00
3142;BME280;1581;51.568;6.998;2023-06-26T02:38:31;100526.25;;;21.76;100.00
3142;BME280;1581;51.568;6.998;2023-06-26T02:40:59;100526.53;;;21.74;100.00
3142;BME280;1581;51.568;6.998;2023-06-26T02:43:31;100524.69;;;21.90;100.00
3142;BME280;1581;51.568;6.998;2023-06-26T02:46:02;100531.72;;;21.81;100.00
3142;BME280;1581;51.568;6.998;2023-06-26T02:48:30;100529.00;;;21.81;100.00
3142;BME280;1581;51.568;6.998;2023-06-26T02:50:58;100535.00;;;21.93;100.00
3142;BME280;1581;51.568;6.998;2023-06-26T02:53:26;100542.84;;;21.89;100.00
3142;BME280;1581;51.568;6.998;2023-06-26T02:55:54;100538.25;;;21.95;100.00
3142;BME280;1581;51.568;6.998;2023-06-26T02:58:22;100544.78;;;21.99;100.00
3142;BME280;1581;51.568;6.998;2023-06-26T03:00:57;100554.56;;;22.05;100.00
3142;BME280;1581;51.568;6.998;2023-06-26T03:03:25;100552.69;;;22.05;100.00
3142;BME280;1581;51.568;6.998;2023-06-26T03:05:53;100552.38;;;22.02;100.00
3142;BME280;1581;51.568;6.998;2023-06-26T03:08:21;100550.25;;;22.09;100.00
3142;BME280;1581;51.568;6.998;2023-06-26T03:10:49;100557.31;;;22.25;100.00
3142;BME280;1581;51.568;6.998;2023-06-26T03:13:17;100564.75;;;22.44;100.00
3142;BME280;1581;51.568;6.998;2023-06-26T03:15:45;100569.91;;;22.60;98.05
3142;BME280;1581;51.568;6.998;2023-06-26T03:18:15;100568.81;;;22.66;97.05
3142;BME280;1581;51.568;6.998;2023-06-26T03:20:42;100571.53;;;22.81;94.83
3142;BME280;1581;51.568;6.998;2023-06-26T03:23:10;100576.97;;;22.76;94.37
3142;BME280;1581;51.568;6.998;2023-06-26T03:25:38;100574.53;;;22.95;95.41
3142;BME280;1581;51.568;6.998;2023-06-26T03:28:06;100575.59;;;22.99;93.40
3142;BME280;1581;51.568;6.998;2023-06-26T03:30:34;100582.69;;;22.90;95.74
3142;BME280;1581;51.568;6.998;2023-06-26T03:33:02;100576.97;;;22.86;97.25
3142;BME280;1581;51.568;6.998;2023-06-26T03:35:31;100587.03;;;22.81;96.33
3142;BME280;1581;51.568;6.998;2023-06-26T03:38:01;100575.34;;;22.80;95.72
3142;BME280;1581;51.568;6.998;2023-06-26T03:40:28;100583.50;;;22.80;95.97
3142;BME280;1581;51.568;6.998;2023-06-26T03:42:56;100583.50;;;23.05;95.25
3142;BME280;1581;51.568;6.998;2023-06-26T03:45:26;100579.69;;;23.11;94.68
3142;BME280;1581;51.568;6.998;2023-06-26T03:47:54;100588.66;;;23.22;94.77
3142;BME280;1581;51.568;6.998;2023-06-26T03:50:21;100587.56;;;23.23;95.06
3142;BME280;1581;51.568;6.998;2023-06-26T03:52:51;100587.31;;;23.14;96.32
3142;BME280;1581;51.568;6.998;2023-06-26T03:55:21;100577.78;;;23.17;97.09
3142;BME280;1581;51.568;6.998;2023-06-26T03:57:50;100582.94;;;23.13;97.08
3142;BME280;1581;51.568;6.998;2023-06-26T04:00:18;100585.94;;;23.22;97.67
3142;BME280;1581;51.568;6.998;2023-06-26T04:02:46;100597.34;;;23.19;98.45
3142;BME280;1581;51.568;6.998;2023-06-26T04:05:14;100593.56;;;23.10;99.76
3142;BME280;1581;51.568;6.998;2023-06-26T04:07:43;100612.88;;;23.08;100.00
3142;BME280;1581;51.568;6.998;2023-06-26T04:10:12;100605.25;;;23.15;100.00
3142;BME280;1581;51.568;6.998;2023-06-26T04:12:40;100606.06;;;22.96;100.00
3142;BME280;1581;51.568;6.998;2023-06-26T04:15:09;100613.66;;;22.94;100.00
3142;BME280;1581;51.568;6.998;2023-06-26T04:17:37;100614.19;;;23.01;100.00
3142;BME280;1581;51.568;6.998;2023-06-26T04:20:06;100618.56;;;22.92;100.00
3142;BME280;1581;51.568;6.998;2023-06-26T04:22:35;100619.91;;;22.99;100.00
3142;BME280;1581;51.568;6.998;2023-06-26T04:25:04;100632.94;;;22.92;100.00
3142;BME280;1581;51.568;6.998;2023-06-26T04:27:33;100629.97;;;22.89;100.00
3142;BME280;1581;51.568;6.998;2023-06-26T04:30:01;100623.75;;;23.08;100.00
3142;BME280;1581;51.568;6.998;2023-06-26T04:32:29;100631.03;;;22.98;100.00
3142;BME280;1581;51.568;6.998;2023-06-26T04:34:58;100633.28;;;23.06;100.00
3142;BME280;1581;51.568;6.998;2023-06-26T04:37:26;100625.34;;;22.79;100.00
3142;BME280;1581;51.568;6.998;2023-06-26T04:39:54;100635.66;;;22.72;100.00
3142;BME280;1581;51.568;6.998;2023-06-26T04:42:22;100631.88;;;22.88;100.00
3142;BME280;1581;51.568;6.998;2023-06-26T04:44:52;100635.94;;;22.81;100.00
3142;BME280;1581;51.568;6.998;2023-06-26T04:47:21;100633.75;;;22.78;100.00
3142;BME280;1581;51.568;6.998;2023-06-26T04:49:49;100640.03;;;22.88;100.00
3142;BME280;1581;51.568;6.998;2023-06-26T04:52:17;100635.69;;;22.87;100.00
3142;BME280;1581;51.568;6.998;2023-06-26T04:54:45;100636.47;;;22.78;100.00
3142;BME280;1581;51.568;6.998;2023-06-26T04:57:13;100632.38;;;22.56;100.00
3142;BME280;1581;51.568;6.998;2023-06-26T04:59:41;100638.63;;;22.76;100.00
3142;BME280;1581;51.568;6.998;2023-06-26T05:02:09;100639.75;;;22.80;100.00
3142;BME280;1581;51.568;6.998;2023-06-26T05:04:38;100635.09;;;22.60;100.00
3142;BME280;1581;51.568;6.998;2023-06-26T05:07:08;100632.94;;;22.77;100.00
3142;BME280;1581;51.568;6.998;2023-06-26T05:09:35;100641.41;;;22.96;100.00
3142;BME280;1581;51.568;6.998;2023-06-26T05:12:04;100645.50;;;23.08;100.00
3142;BME280;1581;51.568;6.998;2023-06-26T05:14:32;100647.38;;;22.93;100.00
3142;BME280;1581;51.568;6.998;2023-06-26T05:16:59;100655.50;;;22.88;100.00
3142;BME280;1581;51.568;6.998;2023-06-26T05:19:29;100660.69;;;22.99;100.00
3142;BME280;1581;51.568;6.998;2023-06-26T05:21:56;100652.25;;;23.01;100.00
3142;BME280;1581;51.568;6.998;2023-06-26T05:24:25;100672.09;;;23.01;100.00
3142;BME280;1581;51.568;6.998;2023-06-26T05:26:54;100660.97;;;23.08;100.00
3142;BME280;1581;51.568;6.998;2023-06-26T05:29:23;100666.41;;;23.18;100.00
3142;BME280;1581;51.568;6.998;2023-06-26T05:31:51;100670.47;;;22.95;100.00
3142;BME280;1581;51.568;6.998;2023-06-26T05:34:22;100684.38;;;23.19;100.00
3142;BME280;1581;51.568;6.998;2023-06-26T05:36:52;100675.94;;;23.05;100.00
3142;BME280;1581;51.568;6.998;2023-06-26T05:39:24;100688.69;;;22.95;100.00
3142;BME280;1581;51.568;6.998;2023-06-26T05:41:53;100685.44;;;23.08;100.00
3142;BME280;1581;51.568;6.998;2023-06-26T05:44:23;100689.28;;;23.22;100.00
3142;BME280;1581;51.568;6.998;2023-06-26T05:46:57;100689.19;;;22.87;100.00
3142;BME280;1581;51.568;6.998;2023-06-26T05:49:27;100697.63;;;22.70;100.00
3142;BME280;1581;51.568;6.998;2023-06-26T05:51:57;100687.03;;;22.74;100.00
3142;BME280;1581;51.568;6.998;2023-06-26T05:54:26;100688.38;;;22.91;100.00
3142;BME280;1581;51.568;6.998;2023-06-26T05:56:57;100692.50;;;22.94;100.00
3142;BME280;1581;51.568;6.998;2023-06-26T05:59:29;100695.53;;;23.07;100.00
3142;BME280;1581;51.568;6.998;2023-06-26T06:02:00;100705.31;;;23.08;100.00
3142;BME280;1581;51.568;6.998;2023-06-26T06:04:28;100706.38;;;23.22;100.00
3142;BME280;1581;51.568;6.998;2023-06-26T06:07:01;100708.28;;;23.27;100.00
3142;BME280;1581;51.568;6.998;2023-06-26T06:09:32;100710.75;;;23.18;100.00
3142;BME280;1581;51.568;6.998;2023-06-26T06:12:10;100710.75;;;23.33;100.00
3142;BME280;1581;51.568;6.998;2023-06-26T06:14:40;100701.75;;;23.18;100.00
3142;BME280;1581;51.568;6.998;2023-06-26T06:17:07;100699.88;;;23.38;100.00
3142;BME280;1581;51.568;6.998;2023-06-26T06:19:35;100709.34;;;23.01;100.00
3142;BME280;1581;51.568;6.998;2023-06-26T06:22:05;100699.88;;;23.08;100.00
3142;BME280;1581;51.568;6.998;2023-06-26T06:24:32;100708.28;;;23.27;100.00
3142;BME280;1581;51.568;6.998;2023-06-26T06:27:00;100718.38;;;23.36;100.00
3142;BME280;1581;51.568;6.998;2023-06-26T06:29:29;100725.06;;;22.89;100.00
3142;BME280;1581;51.568;6.998;2023-06-26T06:31:57;100732.50;;;23.08;100.00
3142;BME280;1581;51.568;6.998;2023-06-26T06:34:25;100730.25;;;22.80;100.00
3142;BME280;1581;51.568;6.998;2023-06-26T06:36:53;100737.88;;;22.88;100.00
3142;BME280;1581;51.568;6.998;2023-06-26T06:39:22;100731.84;;;22.81;100.00
3142;BME280;1581;51.568;6.998;2023-06-26T06:41:50;100740.22;;;22.55;100.00
3142;BME280;1581;51.568;6.998;2023-06-26T06:44:18;100735.59;;;22.51;100.00
3142;BME280;1581;51.568;6.998;2023-06-26T06:46:46;100752.53;;;22.26;100.00
3142;BME280;1581;51.568;6.998;2023-06-26T06:49:14;100761.91;;;22.50;100.00
3142;BME280;1581;51.568;6.998;2023-06-26T06:51:42;100756.28;;;22.71;100.00
3142;BME280;1581;51.568;6.998;2023-06-26T06:54:15;100761.19;;;22.69;100.00
3142;BME280;1581;51.568;6.998;2023-06-26T06:56:46;100770.19;;;22.85;100.00
3142;BME280;1581;51.568;6.998;2023-06-26T06:59:16;100773.75;;;22.95;100.00
3142;BME280;1581;51.568;6.998;2023-06-26T07:01:44;100765.34;;;23.02;100.00
3142;BME280;1581;51.568;6.998;2023-06-26T07:04:15;100769.13;;;23.01;100.00
3142;BME280;1581;51.568;6.998;2023-06-26T07:06:43;100768.38;;;23.05;100.00
3142;BME280;1581;51.568;6.998;2023-06-26T07:09:11;100777.66;;;23.19;100.00
3142;BME280;1581;51.568;6.998;2023-06-26T07:11:39;100783.34;;;23.23;100.00
3142;BME280;1581;51.568;6.998;2023-06-26T07:14:09;100773.56;;;23.22;100.00
3142;BME280;1581;51.568;6.998;2023-06-26T07:16:37;100775.75;;;23.49;100.00
3142;BME280;1581;51.568;6.998;2023-06-26T07:19:05;100779.31;;;23.50;100.00
3142;BME280;1581;51.568;6.998;2023-06-26T07:21:33;100782.84;;;23.80;100.00
3142;BME280;1581;51.568;6.998;2023-06-26T07:24:00;100784.22;;;23.78;100.00
3142;BME280;1581;51.568;6.998;2023-06-26T07:26:28;100788.59;;;23.79;100.00
3142;BME280;1581;51.568;6.998;2023-06-26T07:28:56;100783.13;;;23.79;100.00
3142;BME280;1581;51.568;6.998;2023-06-26T07:31:26;100791.00;;;23.90;100.00
3142;BME280;1581;51.568;6.998;2023-06-26T07:33:53;100781.75;;;23.61;100.00
3142;BME280;1581;51.568;6.998;2023-06-26T07:36:21;100777.16;;;23.77;100.00
3142;BME280;1581;51.568;6.998;2023-06-26T07:38:49;100777.38;;;23.70;100.00
3142;BME280;1581;51.568;6.998;2023-06-26T07:41:17;100782.03;;;23.60;100.00
3142;BME280;1581;51.568;6.998;2023-06-26T07:43:45;100782.28;;;23.48;100.00
3142;BME280;1581;51.568;6.998;2023-06-26T07:46:13;100789.09;;;23.56;100.00
3142;BME280;1581;51.568;6.998;2023-06-26T07:48:42;100791.00;;;23.65;100.00
3142;BME280;1581;51.568;6.998;2023-06-26T07:51:13;100789.09;;;23.86;100.00
3142;BME280;1581;51.568;6.998;2023-06-26T07:53:44;100796.19;;;23.97;100.00
3142;BME280;1581;51.568;6.998;2023-06-26T07:56:11;100802.16;;;23.69;100.00
3142;BME280;1581;51.568;6.998;2023-06-26T07:58:39;100796.69;;;23.74;100.00
3142;BME280;1581;51.568;6.998;2023-06-26T08:01:07;100805.44;;;23.76;100.00
3142;BME280;1581;51.568;6.998;2023-06-26T08:03:35;100801.59;;;24.07;100.00
3142;BME280;1581;51.568;6.998;2023-06-26T08:06:05;100803.22;;;24.13;100.00
3142;BME280;1581;51.568;6.998;2023-06-26T08:08:33;100812.50;;;24.07;100.00
3142;BME280;1581;51.568;6.998;2023-06-26T08:11:00;100819.03;;;23.91;100.00
3142;BME280;1581;51.568;6.998;2023-06-26T08:13:28;100815.75;;;24.14;100.00
3142;BME280;1581;51.568;6.998;2023-06-26T08:15:56;100829.09;;;24.10;100.00
3142;BME280;1581;51.568;6.998;2023-06-26T08:18:24;100828.22;;;24.39;100.00
3142;BME280;1581;51.568;6.998;2023-06-26T08:20:52;100826.88;;;24.52;100.00
3142;BME280;1581;51.568;6.998;2023-06-26T08:23:26;100841.28;;;24.42;98.74
3142;BME280;1581;51.568;6.998;2023-06-26T08:26:04;100829.91;;;24.31;97.87
3142;BME280;1581;51.568;6.998;2023-06-26T08:28:32;100843.25;;;24.22;97.32
3142;BME280;1581;51.568;6.998;2023-06-26T08:31:00;100847.28;;;24.54;97.59
3142;BME280;1581;51.568;6.998;2023-06-26T08:33:29;100850.56;;;24.56;96.66
3142;BME280;1581;51.568;6.998;2023-06-26T08:35:59;100857.91;;;24.56;95.31
3142;BME280;1581;51.568;6.998;2023-06-26T08:38:37;100853.81;;;24.53;96.03
3142;BME280;1581;51.568;6.998;2023-06-26T08:41:13;100859.28;;;24.38;97.24
3142;BME280;1581;51.568;6.998;2023-06-26T08:43:41;100864.13;;;24.76;98.28
3142;BME280;1581;51.568;6.998;2023-06-26T08:46:12;100864.97;;;24.62;95.97
3142;BME280;1581;51.568;6.998;2023-06-26T08:48:49;100860.34;;;24.62;96.44
3142;BME280;1581;51.568;6.998;2023-06-26T08:51:24;100860.41;;;24.28;98.10
3142;BME280;1581;51.568;6.998;2023-06-26T08:54:01;100875.09;;;24.36;97.93
3142;BME280;1581;51.568;6.998;2023-06-26T08:56:44;100869.91;;;24.50;96.81
3142;BME280;1581;51.568;6.998;2023-06-26T08:59:16;100871.53;;;24.56;96.85
3142;BME280;1581;51.568;6.998;2023-06-26T09:01:46;100874.75;;;24.68;95.09
3142;BME280;1581;51.568;6.998;2023-06-26T09:04:15;100882.72;;;24.49;95.09
3142;BME280;1581;51.568;6.998;2023-06-26T09:06:45;100881.09;;;24.38;95.67
3142;BME280;1581;51.568;6.998;2023-06-26T09:09:16;100880.22;;;24.68;94.31
3142;BME280;1581;51.568;6.998;2023-06-26T09:11:44;100888.34;;;24.78;92.96
3142;BME280;1581;51.568;6.998;2023-06-26T09:14:12;100889.25;;;24.58;91.94
3142;BME280;1581;51.568;6.998;2023-06-26T09:16:41;100883.78;;;24.63;94.80
3142;BME280;1581;51.568;6.998;2023-06-26T09:19:11;100870.44;;;24.57;92.90
3142;BME280;1581;51.568;6.998;2023-06-26T09:21:40;100880.53;;;24.51;92.95
3142;BME280;1581;51.568;6.998;2023-06-26T09:24:09;100869.28;;;24.83;93.63
3142;BME280;1581;51.568;6.998;2023-06-26T09:26:42;100867.31;;;24.93;90.82
3142;BME280;1581;51.568;6.998;2023-06-26T09:29:10;100880.41;;;24.96;89.27
3142;BME280;1581;51.568;6.998;2023-06-26T09:31:39;100882.22;;;25.16;89.15
3142;BME280;1581;51.568;6.998;2023-06-26T09:34:07;100883.50;;;25.33;87.69
3142;BME280;1581;51.568;6.998;2023-06-26T09:36:35;100888.78;;;25.63;87.48
3142;BME280;1581;51.568;6.998;2023-06-26T09:39:04;100886.22;;;25.38;84.58
3142;BME280;1581;51.568;6.998;2023-06-26T09:41:37;100885.00;;;25.59;85.71
3142;BME280;1581;51.568;6.998;2023-06-26T09:44:07;100892.50;;;25.82;85.32
3142;BME280;1581;51.568;6.998;2023-06-26T09:46:38;100890.03;;;25.85;84.07
3142;BME280;1581;51.568;6.998;2023-06-26T09:49:09;100897.00;;;26.01;78.58
3142;BME280;1581;51.568;6.998;2023-06-26T09:51:40;100886.31;;;26.05;79.51
3142;BME280;1581;51.568;6.998;2023-06-26T09:54:09;100899.66;;;26.06;82.14
3142;BME280;1581;51.568;6.998;2023-06-26T09:56:37;100899.50;;;25.93;77.59
3142;BME280;1581;51.568;6.998;2023-06-26T09:59:07;100903.78;;;26.04;79.71
3142;BME280;1581;51.568;6.998;2023-06-26T10:01:41;100897.47;;;26.08;75.17
3142;BME280;1581;51.568;6.998;2023-06-26T10:04:09;100898.25;;;26.13;77.63
3142;BME280;1581;51.568;6.998;2023-06-26T10:06:44;100907.59;;;26.08;75.25
3142;BME280;1581;51.568;6.998;2023-06-26T10:09:17;100901.72;;;26.24;73.35
3142;BME280;1581;51.568;6.998;2023-06-26T10:11:51;100905.91;;;26.12;72.91
3142;BME280;1581;51.568;6.998;2023-06-26T10:14:30;100903.59;;;26.28;66.67
3142;BME280;1581;51.568;6.998;2023-06-26T10:17:04;100897.72;;;26.12;66.79
3142;BME280;1581;51.568;6.998;2023-06-26T10:19:34;100910.97;;;25.46;64.87
3142;BME280;1581;51.568;6.998;2023-06-26T10:22:03;100903.53;;;26.05;63.75
3142;BME280;1581;51.568;6.998;2023-06-26T10:24:35;100901.91;;;26.04;66.02
3142;BME280;1581;51.568;6.998;2023-06-26T10:27:08;100913.31;;;26.68;69.30
3142;BME280;1581;51.568;6.998;2023-06-26T10:29:47;100912.19;;;26.97;62.20
3142;BME280;1581;51.568;6.998;2023-06-26T10:32:17;100918.56;;;26.64;58.34
3142;BME280;1581;51.568;6.998;2023-06-26T10:34:46;100914.03;;;26.55;58.38
3142;BME280;1581;51.568;6.998;2023-06-26T10:37:14;100931.97;;;26.89;61.05
3142;BME280;1581;51.568;6.998;2023-06-26T10:39:52;100919.16;;;27.31;62.20
3142;BME280;1581;51.568;6.998;2023-06-26T10:42:35;100919.25;;;27.45;62.06
3142;BME280;1581;51.568;6.998;2023-06-26T10:45:14;100925.34;;;26.67;59.90
3142;BME280;1581;51.568;6.998;2023-06-26T10:47:46;100920.97;;;26.42;63.42
3142;BME280;1581;51.568;6.998;2023-06-26T10:50:19;100933.72;;;26.18;67.46
3142;BME280;1581;51.568;6.998;2023-06-26T10:53:15;100934.66;;;26.04;70.26
3142;BME280;1581;51.568;6.998;2023-06-26T10:55:49;100937.91;;;26.06;65.96
3142;BME280;1581;51.568;6.998;2023-06-26T10:58:32;100955.78;;;26.27;65.94
3142;BME280;1581;51.568;6.998;2023-06-26T11:01:36;100957.06;;;26.68;62.23
3142;BME280;1581;51.568;6.998;2023-06-26T11:04:16;100955.84;;;26.17;61.37
3142;BME280;1581;51.568;6.998;2023-06-26T11:06:46;100954.63;;;26.66;57.89
3142;BME280;1581;51.568;6.998;2023-06-26T11:09:24;100951.91;;;27.60;58.34
3142;BME280;1581;51.568;6.998;2023-06-26T11:12:00;100958.53;;;27.54;57.23
3142;BME280;1581;51.568;6.998;2023-06-26T11:14:35;100970.72;;;27.43;55.61
3142;BME280;1581;51.568;6.998;2023-06-26T11:17:06;100959.84;;;27.80;55.29
3142;BME280;1581;51.568;6.998;2023-06-26T11:19:35;100957.19;;;28.43;48.54
3142;BME280;1581;51.568;6.998;2023-06-26T11:22:04;100971.75;;;29.16;45.00
3142;BME280;1581;51.568;6.998;2023-06-26T11:24:33;100973.25;;;29.75;43.84
3142;BME280;1581;51.568;6.998;2023-06-26T11:27:02;100984.16;;;30.90;41.50
3142;BME280;1581;51.568;6.998;2023-06-26T11:29:32;100990.00;;;30.58;41.78
3142;BME280;1581;51.568;6.998;2023-06-26T11:32:06;100986.31;;;31.32;41.33
3142;BME280;1581;51.568;6.998;2023-06-26T11:34:38;101006.09;;;31.34;40.51
3142;BME280;1581;51.568;6.998;2023-06-26T11:37:17;100995.34;;;31.24;38.87
3142;BME280;1581;51.568;6.998;2023-06-26T11:39:48;100992.84;;;31.05;39.55
3142;BME280;1581;51.568;6.998;2023-06-26T11:42:20;100994.56;;;31.32;38.70
3142;BME280;1581;51.568;6.998;2023-06-26T11:44:51;100987.25;;;31.27;39.55
3142;BME280;1581;51.568;6.998;2023-06-26T11:47:22;100991.69;;;30.10;38.94
3142;BME280;1581;51.568;6.998;2023-06-26T11:49:51;100994.44;;;30.32;39.38
3142;BME280;1581;51.568;6.998;2023-06-26T11:52:19;101005.09;;;30.69;39.02
3142;BME280;1581;51.568;6.998;2023-06-26T11:54:48;100999.53;;;30.61;38.35
3142;BME280;1581;51.568;6.998;2023-06-26T11:57:17;101002.16;;;29.33;38.58
3142;BME280;1581;51.568;6.998;2023-06-26T11:59:45;101001.28;;;29.37;38.14
3142;BME280;1581;51.568;6.998;2023-06-26T12:02:15;101003.66;;;29.79;35.84
3142;BME280;1581;51.568;6.998;2023-06-26T12:04:46;101017.78;;;29.86;36.16
3142;BME280;1581;51.568;6.998;2023-06-26T12:07:14;101017.53;;;29.47;38.11
3142;BME280;1581;51.568;6.998;2023-06-26T12:09:44;101025.25;;;29.72;35.51
3142;BME280;1581;51.568;6.998;2023-06-26T12:12:16;101010.56;;;30.91;33.56
3142;BME280;1581;51.568;6.998;2023-06-26T12:14:44;101020.56;;;29.19;34.24
3142;BME280;1581;51.568;6.998;2023-06-26T12:17:14;101024.44;;;29.18;36.54
3142;BME280;1581;51.568;6.998;2023-06-26T12:19:46;101019.69;;;28.28;37.76
3142;BME280;1581;51.568;6.998;2023-06-26T12:22:15;101022.59;;;29.27;36.10
3142;BME280;1581;51.568;6.998;2023-06-26T12:24:45;101036.06;;;29.42;34.56
3142;BME280;1581;51.568;6.998;2023-06-26T12:27:14;101037.59;;;29.61;34.68
3142;BME280;1581;51.568;6.998;2023-06-26T12:29:50;101037.84;;;29.86;34.88
3142;BME280;1581;51.568;6.998;2023-06-26T12:32:21;101030.31;;;30.84;33.86
3142;BME280;1581;51.568;6.998;2023-06-26T12:34:51;101062.59;;;31.61;32.71
3142;BME280;1581;51.568;6.998;2023-06-26T12:37:20;101049.59;;;31.53;34.20
3142;BME280;1581;51.568;6.998;2023-06-26T12:39:51;101055.28;;;29.82;35.14
3142;BME280;1581;51.568;6.998;2023-06-26T12:42:20;101059.25;;;28.90;36.34
3142;BME280;1581;51.568;6.998;2023-06-26T12:44:48;101056.97;;;28.79;36.94
3142;BME280;1581;51.568;6.998;2023-06-26T12:47:18;101057.94;;;28.88;38.65
3142;BME280;1581;51.568;6.998;2023-06-26T12:49:53;101059.72;;;27.87;39.93
3142;BME280;1581;51.568;6.998;2023-06-26T12:52:23;101054.16;;;27.74;40.55
3142;BME280;1581;51.568;6.998;2023-06-26T12:54:54;101051.91;;;28.36;40.19
3142;BME280;1581;51.568;6.998;2023-06-26T12:57:22;101064.66;;;28.45;38.72
3142;BME280;1581;51.568;6.998;2023-06-26T12:59:50;101071.81;;;28.60;38.06
3142;BME280;1581;51.568;6.998;2023-06-26T13:02:18;101062.97;;;28.49;37.67
3142;BME280;1581;51.568;6.998;2023-06-26T13:04:46;101058.69;;;28.57;36.70
3142;BME280;1581;51.568;6.998;2023-06-26T13:07:15;101056.69;;;28.62;36.01
3142;BME280;1581;51.568;6.998;2023-06-26T13:09:43;101064.19;;;28.57;34.70
3142;BME280;1581;51.568;6.998;2023-06-26T13:12:14;101056.44;;;27.62;36.04
3142;BME280;1581;51.568;6.998;2023-06-26T13:14:42;101056.25;;;27.35;37.44
3142;BME280;1581;51.568;6.998;2023-06-26T13:17:13;101058.44;;;27.33;34.40
3142;BME280;1581;51.568;6.998;2023-06-26T13:19:45;101064.75;;;27.57;37.96
3142;BME280;1581;51.568;6.998;2023-06-26T13:22:15;101069.50;;;26.95;32.99